createdAt,value
2023-02-27T00:00:27.241Z,88.62
2023-02-27T00:06:05.239Z,89.06
2023-02-27T00:11:14.281Z,89.18
2023-02-27T00:16:33.926Z,90.03
2023-02-27T00:21:44.880Z,90.36
2023-02-27T00:26:50.879Z,90.97
2023-02-27T00:32:04.524Z,91.33
2023-02-27T00:37:31.394Z,91.35
2023-02-27T00:42:58.817Z,90.67
2023-02-27T00:48:08.065Z,90.44
2023-02-27T00:53:24.531Z,90.65
2023-02-27T00:58:55.724Z,90.64
2023-02-27T01:04:14.225Z,90.57
2023-02-27T01:09:27.365Z,90.93
2023-02-27T01:14:49.512Z,91.06
2023-02-27T01:19:56.098Z,90.90
2023-02-27T01:25:15.530Z,90.84
2023-02-27T01:30:26.434Z,90.40
2023-02-27T01:35:41.087Z,89.95
2023-02-27T01:41:07.807Z,89.89
2023-02-27T01:46:24.908Z,89.71
2023-02-27T01:51:50.414Z,89.54
2023-02-27T01:56:57.614Z,89.44
2023-02-27T02:02:31.137Z,89.43
2023-02-27T02:07:38.631Z,89.31
2023-02-27T02:12:55.900Z,89.26
2023-02-27T02:19:20.383Z,88.91
2023-02-27T02:24:56.549Z,88.60
2023-02-27T02:31:21.238Z,88.19
2023-02-27T02:37:36.580Z,87.95
2023-02-27T02:43:11.174Z,87.67
2023-02-27T02:48:42.733Z,87.04
2023-02-27T02:54:10.685Z,86.96
2023-02-27T03:00:00.801Z,87.38
2023-02-27T03:05:40.246Z,86.56
2023-02-27T03:10:59.666Z,86.68
2023-02-27T03:16:34.196Z,86.38
2023-02-27T03:22:06.630Z,86.68
2023-02-27T03:27:16.687Z,87.03
2023-02-27T03:32:54.875Z,87.18
2023-02-27T03:38:27.941Z,87.23
2023-02-27T03:44:30.938Z,86.90
2023-02-27T03:49:51.086Z,87.04
2023-02-27T03:55:01.642Z,87.20
2023-02-27T04:00:12.643Z,87.19
2023-02-27T04:05:46.742Z,87.42
2023-02-27T04:11:30.590Z,87.47
2023-02-27T04:16:42.834Z,87.36
2023-02-27T04:22:29.118Z,87.29
2023-02-27T04:27:51.176Z,86.97
2023-02-27T04:33:18.508Z,87.00
2023-02-27T04:38:33.154Z,86.98
2023-02-27T04:43:46.082Z,87.04
2023-02-27T04:49:12.777Z,87.18
2023-02-27T04:54:28.431Z,87.02
2023-02-27T04:59:58.554Z,87.06
2023-02-27T05:05:17.790Z,86.91
2023-02-27T05:10:37.882Z,86.68
2023-02-27T05:15:49.756Z,86.79
2023-02-27T05:21:09.609Z,86.83
2023-02-27T05:27:14.230Z,86.69
2023-02-27T05:32:42.187Z,86.45
2023-02-27T05:38:06.610Z,86.64
2023-02-27T05:43:21.360Z,86.38
2023-02-27T05:48:35.952Z,86.33
2023-02-27T05:53:50.888Z,86.24
2023-02-27T05:59:14.741Z,86.36
2023-02-27T06:04:20.812Z,86.11
2023-02-27T06:09:24.108Z,86.21
2023-02-27T06:14:27.853Z,86.61
2023-02-27T06:19:31.211Z,86.35
2023-02-27T06:24:39.889Z,85.25
2023-02-27T06:29:43.156Z,85.33
2023-02-27T06:34:49.545Z,84.91
2023-02-27T06:39:52.996Z,85.35
2023-02-27T06:44:56.229Z,85.88
2023-02-27T06:49:59.761Z,85.91
2023-02-27T06:55:04.794Z,86.03
2023-02-27T07:00:12.482Z,86.14
2023-02-27T07:05:18.326Z,85.82
2023-02-27T07:10:21.623Z,83.69
2023-02-27T07:15:25.377Z,82.05
2023-02-27T07:20:28.737Z,81.96
2023-02-27T07:25:31.919Z,81.71
2023-02-27T07:30:35.272Z,83.43
2023-02-27T07:35:38.969Z,80.79
2023-02-27T07:40:45.021Z,80.88
2023-02-27T07:45:55.732Z,78.76
2023-02-27T07:51:02.265Z,80.13
2023-02-27T07:56:06.461Z,80.00
2023-02-27T08:01:12.282Z,74.95
2023-02-27T08:06:20.605Z,74.65
2023-02-27T08:11:24.126Z,73.18
2023-02-27T08:16:33.737Z,71.28
2023-02-27T08:21:45.835Z,70.10
2023-02-27T08:26:58.265Z,69.10
2023-02-27T08:32:05.183Z,68.04
2023-02-27T08:37:08.452Z,67.28
2023-02-27T08:42:11.663Z,69.34
2023-02-27T08:47:15.064Z,68.33
2023-02-27T08:52:39.005Z,66.72
2023-02-27T08:57:48.516Z,66.11
2023-02-27T09:02:57.200Z,65.00
2023-02-27T09:08:08.363Z,64.14
2023-02-27T09:13:17.353Z,63.78
2023-02-27T09:18:24.347Z,62.88
2023-02-27T09:23:45.547Z,62.70
2023-02-27T09:28:49.764Z,63.13
2023-02-27T09:33:53.226Z,61.58
2023-02-27T09:38:59.042Z,61.08
2023-02-27T09:44:47.678Z,61.14
2023-02-27T09:50:09.202Z,60.24
2023-02-27T09:55:35.081Z,60.17
2023-02-27T10:01:10.262Z,60.51
2023-02-27T10:06:33.790Z,59.39
2023-02-27T10:12:13.579Z,58.42
2023-02-27T10:17:35.370Z,58.54
2023-02-27T10:22:46.334Z,59.42
2023-02-27T10:27:57.102Z,59.67
2023-02-27T10:33:39.204Z,60.38
2023-02-27T10:38:51.178Z,60.71
2023-02-27T10:44:01.770Z,60.67
2023-02-27T10:49:24.050Z,60.99
2023-02-27T10:54:27.464Z,58.63
2023-02-27T10:59:38.927Z,57.74
2023-02-27T11:05:12.382Z,58.85
2023-02-27T11:10:28.984Z,58.82
2023-02-27T11:15:38.593Z,57.76
2023-02-27T11:21:04.502Z,56.71
2023-02-27T11:26:57.669Z,55.69
2023-02-27T11:32:12.759Z,56.03
2023-02-27T11:37:35.949Z,55.51
2023-02-27T11:42:56.136Z,56.22
2023-02-27T11:48:18.626Z,56.22
2023-02-27T11:54:15.855Z,55.69
2023-02-27T11:59:49.244Z,55.79
2023-02-27T12:04:57.891Z,55.71
2023-02-27T12:10:35.641Z,55.92
2023-02-27T12:16:31.647Z,56.48
2023-02-27T12:21:45.311Z,56.96
2023-02-27T12:27:30.172Z,57.28
2023-02-27T12:32:50.859Z,56.31
2023-02-27T12:38:07.823Z,55.01
2023-02-27T12:44:15.790Z,55.88
2023-02-27T12:49:42.086Z,55.35
2023-02-27T12:55:49.003Z,54.33
2023-02-27T13:01:41.781Z,54.28
2023-02-27T13:07:38.705Z,54.74
2023-02-27T13:13:17.324Z,53.94
2023-02-27T13:19:01.565Z,53.53
2023-02-27T13:24:33.736Z,52.78
2023-02-27T13:29:55.683Z,53.81
2023-02-27T13:36:00.474Z,53.62
2023-02-27T13:41:50.524Z,53.70
2023-02-27T13:47:37.966Z,53.79
2023-02-27T13:52:48.761Z,53.82
2023-02-27T13:57:57.950Z,53.44
2023-02-27T14:03:33.732Z,53.44
2023-02-27T14:09:14.099Z,53.10
2023-02-27T14:14:57.471Z,53.74
2023-02-27T14:20:30.968Z,53.55
2023-02-27T14:25:41.219Z,53.44
2023-02-27T14:31:07.709Z,53.81
2023-02-27T14:37:17.346Z,53.96
2023-02-27T14:43:06.901Z,54.62
2023-02-27T14:48:38.895Z,54.83
2023-02-27T14:54:19.420Z,54.94
2023-02-27T14:59:56.528Z,54.69
2023-02-27T15:05:02.673Z,55.04
2023-02-27T15:10:17.327Z,55.71
2023-02-27T15:15:31.586Z,56.39
2023-02-27T15:20:37.990Z,55.94
2023-02-27T15:25:54.565Z,56.23
2023-02-27T15:31:20.863Z,56.36
2023-02-27T15:36:45.176Z,56.79
2023-02-27T15:41:59.287Z,57.26
2023-02-27T15:47:26.164Z,57.92
2023-02-27T15:53:34.923Z,58.19
2023-02-27T15:59:17.562Z,59.10
2023-02-27T16:04:53.612Z,59.69
2023-02-27T16:11:11.616Z,60.21
2023-02-27T16:44:32.308Z,61.23
2023-02-27T16:50:50.556Z,62.48
2023-02-27T16:57:15.675Z,63.15
2023-02-27T17:03:23.865Z,66.01
2023-02-27T17:09:33.699Z,66.64
2023-02-27T17:14:58.194Z,67.47
2023-02-27T17:21:13.946Z,67.50
2023-02-27T17:34:10.667Z,67.89
2023-02-27T17:40:03.965Z,66.89
2023-02-27T17:46:06.706Z,66.80
2023-02-27T17:51:40.327Z,66.79
2023-02-27T17:56:56.385Z,67.14
2023-02-27T18:02:32.845Z,67.24
2023-02-27T18:07:49.546Z,67.18
2023-02-27T18:13:10.604Z,67.46
2023-02-27T18:18:17.498Z,67.90
2023-02-27T18:23:56.875Z,68.11
2023-02-27T18:30:20.416Z,70.07
2023-02-27T18:38:01.309Z,68.25
2023-02-27T18:42:00.281Z,68.13
2023-02-27T18:47:30.387Z,69.49
2023-02-27T18:53:02.169Z,70.25
2023-02-27T18:58:06.282Z,69.06
2023-02-27T19:03:24.557Z,69.89
2023-02-27T19:09:35.064Z,74.21
2023-02-27T19:14:50.191Z,71.33
2023-02-27T19:20:09.349Z,72.49
2023-02-27T19:25:17.205Z,71.11
2023-02-27T19:30:29.213Z,70.93
2023-02-27T19:36:16.959Z,70.92
2023-02-27T19:41:53.655Z,70.86
2023-02-27T19:47:55.630Z,70.65
2023-02-27T20:07:50.766Z,71.33
2023-02-27T20:13:56.486Z,71.57
2023-02-27T20:18:59.826Z,71.53
2023-02-27T20:24:03.527Z,71.39
2023-02-27T20:29:17.459Z,71.13
2023-02-27T20:34:25.867Z,71.02
2023-02-27T20:39:29.837Z,71.03
2023-02-27T20:44:44.678Z,71.52
2023-02-27T20:49:47.825Z,72.92
2023-02-27T20:55:04.569Z,73.39
2023-02-27T21:00:25.448Z,72.70
2023-02-27T21:05:34.476Z,73.39
2023-02-27T21:10:51.144Z,73.50
2023-02-27T21:16:00.490Z,73.16
2023-02-27T21:21:11.028Z,73.14
2023-02-27T21:26:34.813Z,74.86
2023-02-27T21:31:52.429Z,74.88
2023-02-27T21:37:03.041Z,75.23
2023-02-27T21:42:09.118Z,75.40
2023-02-27T21:47:12.544Z,76.00
2023-02-27T21:52:21.244Z,75.76
2023-02-27T21:57:24.499Z,76.43
2023-02-27T22:02:31.071Z,77.49
2023-02-27T22:08:14.841Z,77.89
2023-02-27T22:13:36.481Z,77.92
2023-02-27T22:18:42.983Z,76.89
2023-02-27T22:24:04.712Z,78.09
2023-02-27T22:29:34.006Z,77.00
2023-02-27T22:34:37.233Z,77.81
2023-02-27T22:40:37.390Z,76.76
2023-02-27T22:46:11.398Z,78.18
2023-02-27T22:52:00.483Z,79.40
2023-02-27T22:57:12.687Z,78.69
2023-02-27T23:02:18.999Z,77.75
2023-02-27T23:07:24.928Z,77.96
2023-02-27T23:12:51.598Z,77.46
2023-02-27T23:18:04.172Z,78.25
2023-02-27T23:23:13.180Z,79.17
2023-02-27T23:28:30.042Z,78.32
2023-02-27T23:33:50.788Z,79.34
2023-02-27T23:38:54.437Z,78.64
2023-02-27T23:44:16.788Z,79.18
2023-02-27T23:49:27.361Z,78.53
2023-02-27T23:54:30.656Z,78.58
2023-02-27T23:59:33.918Z,78.63
